sensor_id;sensor_type;location;lat;lon;timestamp;pressure;altitude;pressure_sealevel;temperature;humidity
57990;BME280;58373;51.824;5.564;2023-06-22T00:01:14;101832.31;;;19.80;69.41
57990;BME280;58373;51.824;5.564;2023-06-22T00:03:39;101823.75;;;19.78;69.59
57990;BME280;58373;51.824;5.564;2023-06-22T00:06:05;101824.91;;;19.75;69.74
57990;BME280;58373;51.824;5.564;2023-06-22T00:08:30;101825.22;;;19.72;70.13
57990;BME280;58373;51.824;5.564;2023-06-22T00:10:55;101833.28;;;19.71;69.84
57990;BME280;58373;51.824;5.564;2023-06-22T00:13:20;101828.34;;;19.68;70.59
57990;BME280;58373;51.824;5.564;2023-06-22T00:15:46;101823.38;;;19.65;70.36
57990;BME280;58373;51.824;5.564;2023-06-22T00:18:11;101825.38;;;19.62;70.70
57990;BME280;58373;51.824;5.564;2023-06-22T00:20:38;101817.91;;;19.58;71.14
57990;BME280;58373;51.824;5.564;2023-06-22T00:23:04;101822.53;;;19.56;71.07
57990;BME280;58373;51.824;5.564;2023-06-22T00:25:33;101822.66;;;19.54;71.15
57990;BME280;58373;51.824;5.564;2023-06-22T00:27:58;101820.38;;;19.51;71.01
57990;BME280;58373;51.824;5.564;2023-06-22T00:30:23;101805.88;;;19.47;71.35
57990;BME280;58373;51.824;5.564;2023-06-22T00:32:49;101807.16;;;19.43;71.37
57990;BME280;58373;51.824;5.564;2023-06-22T00:35:14;101812.59;;;19.42;71.87
57990;BME280;58373;51.824;5.564;2023-06-22T00:37:39;101813.88;;;19.37;71.99
57990;BME280;58373;51.824;5.564;2023-06-22T00:40:08;101821.13;;;19.35;72.34
57990;BME280;58373;51.824;5.564;2023-06-22T00:42:36;101816.31;;;19.31;72.79
57990;BME280;58373;51.824;5.564;2023-06-22T00:45:01;101819.94;;;19.30;72.79
57990;BME280;58373;51.824;5.564;2023-06-22T00:47:26;101814.84;;;19.28;72.44
57990;BME280;58373;51.824;5.564;2023-06-22T00:49:52;101814.16;;;19.26;72.83
57990;BME280;58373;51.824;5.564;2023-06-22T00:52:18;101817.66;;;19.27;72.94
57990;BME280;58373;51.824;5.564;2023-06-22T00:54:49;101823.22;;;19.24;73.14
57990;BME280;58373;51.824;5.564;2023-06-22T00:57:15;101826.13;;;19.21;73.53
57990;BME280;58373;51.824;5.564;2023-06-22T00:59:42;101825.31;;;19.20;73.31
57990;BME280;58373;51.824;5.564;2023-06-22T01:02:07;101816.59;;;19.20;73.61
57990;BME280;58373;51.824;5.564;2023-06-22T01:04:36;101813.47;;;19.16;73.59
57990;BME280;58373;51.824;5.564;2023-06-22T01:10:43;101814.25;;;19.08;73.78
57990;BME280;58373;51.824;5.564;2023-06-22T01:12:34;101803.06;;;19.06;74.39
57990;BME280;58373;51.824;5.564;2023-06-22T01:17:47;101808.13;;;19.00;74.73
57990;BME280;58373;51.824;5.564;2023-06-22T01:20:13;101802.06;;;18.99;74.73
57990;BME280;58373;51.824;5.564;2023-06-22T01:25:21;101793.47;;;18.97;74.81
57990;BME280;58373;51.824;5.564;2023-06-22T01:30:16;101797.72;;;18.90;75.47
57990;BME280;58373;51.824;5.564;2023-06-22T01:32:43;101809.22;;;18.89;75.44
57990;BME280;58373;51.824;5.564;2023-06-22T01:35:09;101803.31;;;18.87;75.68
57990;BME280;58373;51.824;5.564;2023-06-22T01:37:36;101800.31;;;18.82;75.51
57990;BME280;58373;51.824;5.564;2023-06-22T01:40:01;101807.50;;;18.80;75.83
57990;BME280;58373;51.824;5.564;2023-06-22T01:42:28;101795.34;;;18.79;75.93
57990;BME280;58373;51.824;5.564;2023-06-22T01:44:54;101794.00;;;18.75;75.95
57990;BME280;58373;51.824;5.564;2023-06-22T01:47:20;101793.19;;;18.74;76.18
57990;BME280;58373;51.824;5.564;2023-06-22T01:49:46;101793.34;;;18.73;76.25
57990;BME280;58373;51.824;5.564;2023-06-22T01:52:11;101802.22;;;18.72;76.22
57990;BME280;58373;51.824;5.564;2023-06-22T01:54:37;101796.31;;;18.70;76.44
57990;BME280;58373;51.824;5.564;2023-06-22T01:57:02;101796.56;;;18.67;76.73
57990;BME280;58373;51.824;5.564;2023-06-22T01:59:34;101802.81;;;18.66;76.41
57990;BME280;58373;51.824;5.564;2023-06-22T02:02:06;101799.34;;;18.65;76.74
57990;BME280;58373;51.824;5.564;2023-06-22T02:04:34;101799.66;;;18.62;76.71
57990;BME280;58373;51.824;5.564;2023-06-22T02:07:01;101799.97;;;18.59;76.76
57990;BME280;58373;51.824;5.564;2023-06-22T02:09:30;101805.34;;;18.57;76.72
57990;BME280;58373;51.824;5.564;2023-06-22T02:11:56;101802.22;;;18.54;76.84
57990;BME280;58373;51.824;5.564;2023-06-22T02:14:23;101804.34;;;18.50;76.99
57990;BME280;58373;51.824;5.564;2023-06-22T02:16:49;101801.03;;;18.48;77.03
57990;BME280;58373;51.824;5.564;2023-06-22T02:19:15;101789.84;;;18.46;77.28
57990;BME280;58373;51.824;5.564;2023-06-22T02:21:40;101791.81;;;18.44;77.34
57990;BME280;58373;51.824;5.564;2023-06-22T02:24:06;101792.13;;;18.41;77.36
57990;BME280;58373;51.824;5.564;2023-06-22T02:26:31;101792.41;;;18.38;77.61
57990;BME280;58373;51.824;5.564;2023-06-22T02:28:57;101791.88;;;18.35;77.86
57990;BME280;58373;51.824;5.564;2023-06-22T02:31:22;101789.44;;;18.33;77.76
57990;BME280;58373;51.824;5.564;2023-06-22T02:33:47;101782.53;;;18.32;77.88
57990;BME280;58373;51.824;5.564;2023-06-22T02:36:13;101773.66;;;18.33;77.76
57990;BME280;58373;51.824;5.564;2023-06-22T02:38:41;101775.91;;;18.28;77.79
57990;BME280;58373;51.824;5.564;2023-06-22T02:41:13;101774.59;;;18.24;77.98
57990;BME280;58373;51.824;5.564;2023-06-22T02:43:39;101769.34;;;18.24;78.15
57990;BME280;58373;51.824;5.564;2023-06-22T02:46:05;101772.41;;;18.19;78.10
57990;BME280;58373;51.824;5.564;2023-06-22T02:48:30;101768.28;;;18.17;78.32
57990;BME280;58373;51.824;5.564;2023-06-22T02:50:55;101766.63;;;18.16;78.22
57990;BME280;58373;51.824;5.564;2023-06-22T02:53:20;101767.78;;;18.13;78.36
57990;BME280;58373;51.824;5.564;2023-06-22T02:55:45;101772.22;;;18.13;78.43
57990;BME280;58373;51.824;5.564;2023-06-22T02:58:11;101765.28;;;18.12;78.77
57990;BME280;58373;51.824;5.564;2023-06-22T03:00:36;101773.31;;;18.10;78.44
57990;BME280;58373;51.824;5.564;2023-06-22T03:03:01;101770.84;;;18.09;79.09
57990;BME280;58373;51.824;5.564;2023-06-22T03:05:26;101776.38;;;18.05;79.14
57990;BME280;58373;51.824;5.564;2023-06-22T03:07:52;101765.22;;;18.03;79.26
57990;BME280;58373;51.824;5.564;2023-06-22T03:10:17;101772.56;;;18.00;79.08
57990;BME280;58373;51.824;5.564;2023-06-22T03:12:42;101770.09;;;17.98;79.39
57990;BME280;58373;51.824;5.564;2023-06-22T03:15:08;101768.47;;;17.97;79.46
57990;BME280;58373;51.824;5.564;2023-06-22T03:17:34;101760.75;;;17.96;79.39
57990;BME280;58373;51.824;5.564;2023-06-22T03:20:00;101746.09;;;17.93;79.90
57990;BME280;58373;51.824;5.564;2023-06-22T03:22:25;101745.44;;;17.91;80.32
57990;BME280;58373;51.824;5.564;2023-06-22T03:24:51;101743.78;;;17.90;79.86
57990;BME280;58373;51.824;5.564;2023-06-22T03:27:16;101743.09;;;17.88;79.97
57990;BME280;58373;51.824;5.564;2023-06-22T03:29:41;101739.81;;;17.86;80.17
57990;BME280;58373;51.824;5.564;2023-06-22T03:32:06;101729.59;;;17.83;80.19
57990;BME280;58373;51.824;5.564;2023-06-22T03:34:32;101732.38;;;17.82;80.38
57990;BME280;58373;51.824;5.564;2023-06-22T03:36:59;101738.78;;;17.79;80.33
57990;BME280;58373;51.824;5.564;2023-06-22T03:39:24;101739.44;;;17.81;80.78
57990;BME280;58373;51.824;5.564;2023-06-22T03:41:49;101737.78;;;17.80;80.50
57990;BME280;58373;51.824;5.564;2023-06-22T03:44:15;101735.16;;;17.80;80.47
57990;BME280;58373;51.824;5.564;2023-06-22T03:46:40;101733.38;;;17.81;80.41
57990;BME280;58373;51.824;5.564;2023-06-22T03:49:05;101742.06;;;17.81;80.39
57990;BME280;58373;51.824;5.564;2023-06-22T03:51:30;101734.34;;;17.80;80.48
57990;BME280;58373;51.824;5.564;2023-06-22T03:53:56;101735.16;;;17.80;80.54
57990;BME280;58373;51.824;5.564;2023-06-22T03:56:21;101735.31;;;17.78;80.77
57990;BME280;58373;51.824;5.564;2023-06-22T03:58:46;101733.81;;;17.76;81.48
57990;BME280;58373;51.824;5.564;2023-06-22T04:01:11;101727.47;;;17.69;80.72
57990;BME280;58373;51.824;5.564;2023-06-22T04:03:37;101737.31;;;17.67;81.12
57990;BME280;58373;51.824;5.564;2023-06-22T04:06:02;101741.88;;;17.65;80.99
57990;BME280;58373;51.824;5.564;2023-06-22T04:08:28;101733.00;;;17.66;80.77
57990;BME280;58373;51.824;5.564;2023-06-22T04:10:53;101731.09;;;17.68;80.90
57990;BME280;58373;51.824;5.564;2023-06-22T04:13:18;101729.13;;;17.70;80.88
57990;BME280;58373;51.824;5.564;2023-06-22T04:15:43;101724.56;;;17.72;80.64
57990;BME280;58373;51.824;5.564;2023-06-22T04:18:09;101717.25;;;17.75;80.55
57990;BME280;58373;51.824;5.564;2023-06-22T04:20:34;101721.38;;;17.78;80.66
57990;BME280;58373;51.824;5.564;2023-06-22T04:22:59;101724.66;;;17.80;80.69
57990;BME280;58373;51.824;5.564;2023-06-22T04:25:24;101734.84;;;17.83;80.71
57990;BME280;58373;51.824;5.564;2023-06-22T04:27:50;101729.59;;;17.83;80.68
57990;BME280;58373;51.824;5.564;2023-06-22T04:30:15;101727.66;;;17.85;80.64
57990;BME280;58373;51.824;5.564;2023-06-22T04:32:41;101729.31;;;17.86;80.63
57990;BME280;58373;51.824;5.564;2023-06-22T04:35:06;101737.84;;;17.88;80.93
57990;BME280;58373;51.824;5.564;2023-06-22T04:37:32;101731.50;;;17.91;80.67
57990;BME280;58373;51.824;5.564;2023-06-22T04:39:57;101729.38;;;17.94;80.56
57990;BME280;58373;51.824;5.564;2023-06-22T04:42:22;101724.66;;;17.98;80.60
57990;BME280;58373;51.824;5.564;2023-06-22T04:44:47;101715.63;;;18.00;80.83
57990;BME280;58373;51.824;5.564;2023-06-22T04:47:13;101717.31;;;18.01;80.62
57990;BME280;58373;51.824;5.564;2023-06-22T04:49:38;101718.97;;;18.02;80.41
57990;BME280;58373;51.824;5.564;2023-06-22T04:52:06;101724.72;;;18.06;80.36
57990;BME280;58373;51.824;5.564;2023-06-22T04:54:32;101727.22;;;18.08;80.75
57990;BME280;58373;51.824;5.564;2023-06-22T04:57:00;101722.44;;;18.11;80.76
57990;BME280;58373;51.824;5.564;2023-06-22T04:59:26;101720.66;;;18.12;80.66
57990;BME280;58373;51.824;5.564;2023-06-22T05:01:53;101729.88;;;18.16;81.53
57990;BME280;58373;51.824;5.564;2023-06-22T05:04:19;101728.75;;;18.18;80.91
57990;BME280;58373;51.824;5.564;2023-06-22T05:06:44;101726.81;;;18.20;81.68
57990;BME280;58373;51.824;5.564;2023-06-22T05:09:10;101731.59;;;18.25;81.23
57990;BME280;58373;51.824;5.564;2023-06-22T05:11:37;101736.53;;;18.28;82.10
57990;BME280;58373;51.824;5.564;2023-06-22T05:14:02;101731.28;;;18.28;82.11
57990;BME280;58373;51.824;5.564;2023-06-22T05:16:27;101720.78;;;18.28;82.39
57990;BME280;58373;51.824;5.564;2023-06-22T05:18:53;101719.94;;;18.27;82.82
57990;BME280;58373;51.824;5.564;2023-06-22T05:21:21;101728.34;;;18.31;82.40
57990;BME280;58373;51.824;5.564;2023-06-22T05:23:46;101723.75;;;18.33;82.47
57990;BME280;58373;51.824;5.564;2023-06-22T05:26:11;101729.38;;;18.38;82.91
57990;BME280;58373;51.824;5.564;2023-06-22T05:28:37;101729.09;;;18.41;82.88
57990;BME280;58373;51.824;5.564;2023-06-22T05:31:02;101737.31;;;18.46;82.66
57990;BME280;58373;51.824;5.564;2023-06-22T05:33:27;101733.41;;;18.50;83.45
57990;BME280;58373;51.824;5.564;2023-06-22T05:35:52;101725.06;;;18.55;83.54
57990;BME280;58373;51.824;5.564;2023-06-22T05:38:17;101730.84;;;18.58;82.80
57990;BME280;58373;51.824;5.564;2023-06-22T05:40:43;101736.28;;;18.65;84.45
57990;BME280;58373;51.824;5.564;2023-06-22T05:43:08;101736.00;;;18.68;83.41
57990;BME280;58373;51.824;5.564;2023-06-22T05:45:33;101736.53;;;18.72;83.61
57990;BME280;58373;51.824;5.564;2023-06-22T05:47:58;101734.53;;;18.74;83.57
57990;BME280;58373;51.824;5.564;2023-06-22T05:50:23;101743.94;;;18.76;83.59
57990;BME280;58373;51.824;5.564;2023-06-22T05:52:49;101740.84;;;18.81;83.10
57990;BME280;58373;51.824;5.564;2023-06-22T05:55:14;101736.09;;;18.84;83.28
57990;BME280;58373;51.824;5.564;2023-06-22T05:57:40;101733.00;;;18.89;82.96
57990;BME280;58373;51.824;5.564;2023-06-22T06:00:05;101727.41;;;18.92;83.28
57990;BME280;58373;51.824;5.564;2023-06-22T06:02:35;101721.84;;;18.95;83.96
57990;BME280;58373;51.824;5.564;2023-06-22T06:05:00;101726.81;;;18.98;83.34
57990;BME280;58373;51.824;5.564;2023-06-22T06:07:27;101724.81;;;19.00;83.72
57990;BME280;58373;51.824;5.564;2023-06-22T06:09:52;101725.84;;;19.07;83.93
57990;BME280;58373;51.824;5.564;2023-06-22T06:12:18;101725.19;;;19.14;84.08
57990;BME280;58373;51.824;5.564;2023-06-22T06:14:43;101726.19;;;19.21;83.55
57990;BME280;58373;51.824;5.564;2023-06-22T06:17:08;101729.84;;;19.28;84.06
57990;BME280;58373;51.824;5.564;2023-06-22T06:19:33;101713.75;;;19.31;83.50
57990;BME280;58373;51.824;5.564;2023-06-22T06:21:59;101723.63;;;19.37;83.16
57990;BME280;58373;51.824;5.564;2023-06-22T06:24:24;101727.28;;;19.44;83.51
57990;BME280;58373;51.824;5.564;2023-06-22T06:26:49;101714.13;;;19.52;84.05
57990;BME280;58373;51.824;5.564;2023-06-22T06:29:14;101708.25;;;19.58;83.42
57990;BME280;58373;51.824;5.564;2023-06-22T06:31:41;101710.38;;;19.71;84.24
57990;BME280;58373;51.824;5.564;2023-06-22T06:34:06;101711.88;;;19.82;83.30
57990;BME280;58373;51.824;5.564;2023-06-22T06:36:31;101713.19;;;19.94;83.07
57990;BME280;58373;51.824;5.564;2023-06-22T06:38:57;101711.38;;;20.03;82.86
57990;BME280;58373;51.824;5.564;2023-06-22T06:41:22;101711.53;;;20.09;82.09
57990;BME280;58373;51.824;5.564;2023-06-22T06:43:48;101708.88;;;20.17;81.53
57990;BME280;58373;51.824;5.564;2023-06-22T06:46:13;101706.94;;;20.20;81.76
57990;BME280;58373;51.824;5.564;2023-06-22T06:48:38;101701.00;;;20.26;81.87
57990;BME280;58373;51.824;5.564;2023-06-22T06:51:04;101699.97;;;20.35;82.10
57990;BME280;58373;51.824;5.564;2023-06-22T06:53:30;101707.06;;;20.42;81.82
57990;BME280;58373;51.824;5.564;2023-06-22T06:55:55;101707.88;;;20.51;81.57
57990;BME280;58373;51.824;5.564;2023-06-22T06:58:20;101700.94;;;20.58;81.28
57990;BME280;58373;51.824;5.564;2023-06-22T07:00:47;101709.16;;;20.63;80.83
57990;BME280;58373;51.824;5.564;2023-06-22T07:03:13;101708.84;;;20.66;80.51
57990;BME280;58373;51.824;5.564;2023-06-22T07:05:38;101708.47;;;20.69;80.26
57990;BME280;58373;51.824;5.564;2023-06-22T07:08:03;101713.41;;;20.73;80.63
57990;BME280;58373;51.824;5.564;2023-06-22T07:10:29;101711.91;;;20.78;80.71
57990;BME280;58373;51.824;5.564;2023-06-22T07:12:54;101708.41;;;20.86;81.13
57990;BME280;58373;51.824;5.564;2023-06-22T07:15:19;101712.38;;;20.90;80.39
57990;BME280;58373;51.824;5.564;2023-06-22T07:17:45;101704.59;;;20.97;80.11
57990;BME280;58373;51.824;5.564;2023-06-22T07:20:10;101703.06;;;21.02;80.05
57990;BME280;58373;51.824;5.564;2023-06-22T07:22:41;101695.47;;;21.07;79.51
57990;BME280;58373;51.824;5.564;2023-06-22T07:25:07;101698.41;;;21.12;79.19
57990;BME280;58373;51.824;5.564;2023-06-22T07:27:39;101692.44;;;21.18;79.07
57990;BME280;58373;51.824;5.564;2023-06-22T07:30:08;101688.09;;;21.26;79.10
57990;BME280;58373;51.824;5.564;2023-06-22T07:32:33;101696.03;;;21.34;78.98
57990;BME280;58373;51.824;5.564;2023-06-22T07:34:58;101690.03;;;21.40;78.15
57990;BME280;58373;51.824;5.564;2023-06-22T07:37:23;101679.94;;;21.43;78.35
57990;BME280;58373;51.824;5.564;2023-06-22T07:39:49;101681.06;;;21.49;78.05
57990;BME280;58373;51.824;5.564;2023-06-22T07:42:18;101688.63;;;21.52;77.76
57990;BME280;58373;51.824;5.564;2023-06-22T07:44:43;101680.72;;;21.52;77.26
57990;BME280;58373;51.824;5.564;2023-06-22T07:47:09;101680.53;;;21.54;77.15
57990;BME280;58373;51.824;5.564;2023-06-22T07:49:34;101679.00;;;21.59;76.63
57990;BME280;58373;51.824;5.564;2023-06-22T07:51:59;101683.56;;;21.65;77.06
57990;BME280;58373;51.824;5.564;2023-06-22T07:54:26;101684.16;;;21.76;76.34
57990;BME280;58373;51.824;5.564;2023-06-22T07:56:51;101678.50;;;21.79;75.46
57990;BME280;58373;51.824;5.564;2023-06-22T07:59:17;101672.88;;;21.82;75.30
57990;BME280;58373;51.824;5.564;2023-06-22T08:01:42;101670.53;;;21.87;75.00
57990;BME280;58373;51.824;5.564;2023-06-22T08:04:07;101665.34;;;21.93;74.58
57990;BME280;58373;51.824;5.564;2023-06-22T08:06:33;101659.16;;;22.01;74.17
57990;BME280;58373;51.824;5.564;2023-06-22T08:08:58;101660.09;;;22.08;73.26
57990;BME280;58373;51.824;5.564;2023-06-22T08:11:24;101646.19;;;22.14;73.29
57990;BME280;58373;51.824;5.564;2023-06-22T08:13:50;101643.00;;;22.19;73.19
57990;BME280;58373;51.824;5.564;2023-06-22T08:16:15;101639.00;;;22.23;72.82
57990;BME280;58373;51.824;5.564;2023-06-22T08:18:40;101634.59;;;22.30;73.63
57990;BME280;58373;51.824;5.564;2023-06-22T08:21:05;101621.03;;;22.33;72.91
57990;BME280;58373;51.824;5.564;2023-06-22T08:23:31;101624.59;;;22.40;71.75
57990;BME280;58373;51.824;5.564;2023-06-22T08:25:56;101622.41;;;22.44;71.54
57990;BME280;58373;51.824;5.564;2023-06-22T08:28:21;101619.38;;;22.47;71.25
57990;BME280;58373;51.824;5.564;2023-06-22T08:30:46;101618.22;;;22.49;70.66
57990;BME280;58373;51.824;5.564;2023-06-22T08:33:11;101610.09;;;22.51;70.79
57990;BME280;58373;51.824;5.564;2023-06-22T08:35:37;101610.91;;;22.51;68.71
57990;BME280;58373;51.824;5.564;2023-06-22T08:38:03;101614.38;;;22.52;68.02
57990;BME280;58373;51.824;5.564;2023-06-22T08:40:28;101616.66;;;22.55;68.79
57990;BME280;58373;51.824;5.564;2023-06-22T08:42:54;101614.28;;;22.60;68.81
57990;BME280;58373;51.824;5.564;2023-06-22T08:45:20;101621.81;;;22.63;67.56
57990;BME280;58373;51.824;5.564;2023-06-22T08:47:45;101617.19;;;22.65;67.80
57990;BME280;58373;51.824;5.564;2023-06-22T08:50:10;101614.78;;;22.70;67.67
57990;BME280;58373;51.824;5.564;2023-06-22T08:52:36;101609.59;;;22.77;67.28
57990;BME280;58373;51.824;5.564;2023-06-22T08:55:02;101613.69;;;22.79;66.41
57990;BME280;58373;51.824;5.564;2023-06-22T08:57:27;101618.59;;;22.83;66.66
57990;BME280;58373;51.824;5.564;2023-06-22T08:59:53;101617.22;;;22.87;66.71
57990;BME280;58373;51.824;5.564;2023-06-22T09:02:18;101610.78;;;22.89;66.90
57990;BME280;58373;51.824;5.564;2023-06-22T09:04:45;101610.56;;;22.91;65.20
57990;BME280;58373;51.824;5.564;2023-06-22T09:07:10;101609.56;;;22.92;65.31
57990;BME280;58373;51.824;5.564;2023-06-22T09:09:36;101611.84;;;22.95;65.62
57990;BME280;58373;51.824;5.564;2023-06-22T09:12:02;101624.06;;;22.96;65.16
57990;BME280;58373;51.824;5.564;2023-06-22T09:14:27;101616.13;;;22.96;64.36
57990;BME280;58373;51.824;5.564;2023-06-22T09:16:52;101606.16;;;22.98;65.27
57990;BME280;58373;51.824;5.564;2023-06-22T09:19:17;101614.75;;;23.00;64.58
57990;BME280;58373;51.824;5.564;2023-06-22T09:21:42;101611.09;;;23.01;65.51
57990;BME280;58373;51.824;5.564;2023-06-22T09:24:08;101601.75;;;23.05;65.35
57990;BME280;58373;51.824;5.564;2023-06-22T09:26:33;101601.41;;;23.08;64.70
57990;BME280;58373;51.824;5.564;2023-06-22T09:28:58;101603.03;;;23.09;64.35
57990;BME280;58373;51.824;5.564;2023-06-22T09:31:23;101601.66;;;23.13;64.95
57990;BME280;58373;51.824;5.564;2023-06-22T09:33:52;101599.63;;;23.15;65.28
57990;BME280;58373;51.824;5.564;2023-06-22T09:36:18;101604.28;;;23.13;64.94
57990;BME280;58373;51.824;5.564;2023-06-22T09:38:43;101601.47;;;23.15;64.43
57990;BME280;58373;51.824;5.564;2023-06-22T09:41:08;101608.38;;;23.16;63.30
57990;BME280;58373;51.824;5.564;2023-06-22T09:43:33;101609.19;;;23.16;64.27
57990;BME280;58373;51.824;5.564;2023-06-22T09:46:01;101601.91;;;23.18;63.66
57990;BME280;58373;51.824;5.564;2023-06-22T09:48:27;101599.44;;;23.17;63.49
57990;BME280;58373;51.824;5.564;2023-06-22T09:50:52;101598.59;;;23.16;63.58
57990;BME280;58373;51.824;5.564;2023-06-22T09:53:17;101603.91;;;23.16;62.34
57990;BME280;58373;51.824;5.564;2023-06-22T09:55:43;101592.69;;;23.14;62.09
57990;BME280;58373;51.824;5.564;2023-06-22T09:58:08;101588.41;;;23.13;61.92
57990;BME280;58373;51.824;5.564;2023-06-22T10:00:33;101588.41;;;23.13;63.22
57990;BME280;58373;51.824;5.564;2023-06-22T10:02:59;101594.06;;;23.10;60.56
57990;BME280;58373;51.824;5.564;2023-06-22T10:05:24;101596.09;;;23.08;61.38
57990;BME280;58373;51.824;5.564;2023-06-22T10:07:50;101591.81;;;23.07;62.32
57990;BME280;58373;51.824;5.564;2023-06-22T10:10:15;101598.56;;;23.10;62.43
57990;BME280;58373;51.824;5.564;2023-06-22T10:12:41;101597.72;;;23.09;62.79
57990;BME280;58373;51.824;5.564;2023-06-22T10:15:07;101592.44;;;23.09;62.83
57990;BME280;58373;51.824;5.564;2023-06-22T10:17:32;101591.44;;;23.10;62.59
57990;BME280;58373;51.824;5.564;2023-06-22T10:19:58;101596.09;;;23.08;62.01
57990;BME280;58373;51.824;5.564;2023-06-22T10:22:23;101584.91;;;23.06;62.71
57990;BME280;58373;51.824;5.564;2023-06-22T10:24:48;101579.78;;;23.04;62.35
57990;BME280;58373;51.824;5.564;2023-06-22T10:27:13;101582.25;;;23.06;62.20
57990;BME280;58373;51.824;5.564;2023-06-22T10:29:39;101578.13;;;23.03;62.27
57990;BME280;58373;51.824;5.564;2023-06-22T10:32:04;101576.69;;;23.01;61.67
57990;BME280;58373;51.824;5.564;2023-06-22T10:34:29;101578.69;;;22.99;62.60
57990;BME280;58373;51.824;5.564;2023-06-22T10:36:55;101576.06;;;22.99;62.93
57990;BME280;58373;51.824;5.564;2023-06-22T10:39:20;101579.72;;;22.98;62.76
57990;BME280;58373;51.824;5.564;2023-06-22T10:41:45;101580.53;;;22.98;62.57
57990;BME280;58373;51.824;5.564;2023-06-22T10:44:10;101578.09;;;22.97;62.58
57990;BME280;58373;51.824;5.564;2023-06-22T10:46:37;101576.44;;;22.96;62.65
57990;BME280;58373;51.824;5.564;2023-06-22T10:49:02;101583.38;;;22.97;62.20
57990;BME280;58373;51.824;5.564;2023-06-22T10:51:27;101577.47;;;22.95;62.61
57990;BME280;58373;51.824;5.564;2023-06-22T10:53:53;101583.72;;;22.94;63.04
57990;BME280;58373;51.824;5.564;2023-06-22T10:56:18;101580.09;;;22.95;63.16
57990;BME280;58373;51.824;5.564;2023-06-22T10:58:44;101575.56;;;22.89;63.35
57990;BME280;58373;51.824;5.564;2023-06-22T11:01:09;101579.19;;;22.88;63.72
57990;BME280;58373;51.824;5.564;2023-06-22T11:03:35;101573.75;;;22.89;64.16
57990;BME280;58373;51.824;5.564;2023-06-22T11:06:00;101575.56;;;22.89;63.96
57990;BME280;58373;51.824;5.564;2023-06-22T11:08:25;101575.56;;;22.89;63.91
57990;BME280;58373;51.824;5.564;2023-06-22T11:10:51;101581.19;;;22.86;63.87
57990;BME280;58373;51.824;5.564;2023-06-22T11:13:16;101576.72;;;22.86;63.99
57990;BME280;58373;51.824;5.564;2023-06-22T11:15:41;101577.53;;;22.87;64.06
57990;BME280;58373;51.824;5.564;2023-06-22T11:18:06;101581.19;;;22.86;64.37
57990;BME280;58373;51.824;5.564;2023-06-22T11:20:32;101581.19;;;22.86;64.22
57990;BME280;58373;51.824;5.564;2023-06-22T11:22:59;101581.19;;;22.86;64.42
57990;BME280;58373;51.824;5.564;2023-06-22T11:25:24;101581.19;;;22.86;64.66
57990;BME280;58373;51.824;5.564;2023-06-22T11:27:50;101582.56;;;22.82;64.63
57990;BME280;58373;51.824;5.564;2023-06-22T11:30:16;101581.56;;;22.83;65.39
57990;BME280;58373;51.824;5.564;2023-06-22T11:32:41;101578.28;;;22.80;65.53
57990;BME280;58373;51.824;5.564;2023-06-22T11:35:06;101585.59;;;22.78;66.77
57990;BME280;58373;51.824;5.564;2023-06-22T11:37:32;101583.97;;;22.77;66.05
57990;BME280;58373;51.824;5.564;2023-06-22T11:39:57;101586.59;;;22.77;66.14
57990;BME280;58373;51.824;5.564;2023-06-22T11:42:23;101579.50;;;22.78;66.46
57990;BME280;58373;51.824;5.564;2023-06-22T11:44:48;101587.22;;;22.79;66.83
57990;BME280;58373;51.824;5.564;2023-06-22T11:47:14;101588.03;;;22.80;67.14
57990;BME280;58373;51.824;5.564;2023-06-22T11:49:39;101592.50;;;22.79;67.10
57990;BME280;58373;51.824;5.564;2023-06-22T11:52:05;101579.84;;;22.75;68.22
57990;BME280;58373;51.824;5.564;2023-06-22T11:54:30;101577.41;;;22.73;68.21
57990;BME280;58373;51.824;5.564;2023-06-22T11:56:55;101570.84;;;22.69;69.03
57990;BME280;58373;51.824;5.564;2023-06-22T11:59:21;101569.94;;;22.62;69.18
57990;BME280;58373;51.824;5.564;2023-06-22T12:01:47;101575.16;;;22.56;69.91
57990;BME280;58373;51.824;5.564;2023-06-22T12:04:12;101580.38;;;22.49;70.53
57990;BME280;58373;51.824;5.564;2023-06-22T12:06:38;101575.84;;;22.43;70.01
57990;BME280;58373;51.824;5.564;2023-06-22T12:09:06;101579.75;;;22.32;70.79
57990;BME280;58373;51.824;5.564;2023-06-22T12:11:31;101564.19;;;22.22;70.07
57990;BME280;58373;51.824;5.564;2023-06-22T12:13:56;101564.66;;;22.11;70.82
57990;BME280;58373;51.824;5.564;2023-06-22T12:16:26;101567.09;;;21.98;71.36
57990;BME280;58373;51.824;5.564;2023-06-22T12:18:51;101560.25;;;21.89;71.88
57990;BME280;58373;51.824;5.564;2023-06-22T12:21:17;101561.97;;;21.82;72.59
57990;BME280;58373;51.824;5.564;2023-06-22T12:23:42;101560.69;;;21.78;72.49
57990;BME280;58373;51.824;5.564;2023-06-22T12:26:07;101566.25;;;21.68;74.53
57990;BME280;58373;51.824;5.564;2023-06-22T12:28:32;101574.59;;;21.57;75.48
57990;BME280;58373;51.824;5.564;2023-06-22T12:30:59;101574.84;;;21.47;75.96
57990;BME280;58373;51.824;5.564;2023-06-22T12:33:24;101578.38;;;21.39;76.50
57990;BME280;58373;51.824;5.564;2023-06-22T12:35:49;101570.84;;;21.28;79.30
57990;BME280;58373;51.824;5.564;2023-06-22T12:38:14;101566.97;;;21.16;79.47
57990;BME280;58373;51.824;5.564;2023-06-22T12:40:39;101560.94;;;21.07;80.04
57990;BME280;58373;51.824;5.564;2023-06-22T12:43:05;101553.63;;;20.94;77.27
57990;BME280;58373;51.824;5.564;2023-06-22T12:45:30;101546.22;;;20.90;78.85
57990;BME280;58373;51.824;5.564;2023-06-22T12:47:58;101533.94;;;20.82;78.35
57990;BME280;58373;51.824;5.564;2023-06-22T12:50:24;101542.69;;;20.75;78.80
57990;BME280;58373;51.824;5.564;2023-06-22T12:52:49;101538.78;;;20.71;78.50